Terminal Aerodrome Forecast
Issued by NWS

Home | Current Version | Previous Version | Text Only | Print | Product List | Glossary On
Versions: 1 2 3 4 5 6 7 8 9 10 11 12 13 14 15 16
000
FTUS44 KEWX 300534
TAFSSF
TAF
KSSF 300534Z 3006/3106 15008KT P6SM BKN200
     FM301100 19005KT P6SM SCT025 SCT070 BKN150
     FM301500 18010KT P6SM BKN150=

USA.gov is the U.S. government's official web portal to all federal, state and local government web resources and services.